createdAt,value
2023-03-27T00:01:58.258Z,254.00
2023-03-27T00:04:27.222Z,243.57
2023-03-27T00:06:56.013Z,257.00
2023-03-27T00:09:24.884Z,227.02
2023-03-27T00:11:53.684Z,216.40
2023-03-27T00:14:22.893Z,204.77
2023-03-27T00:16:51.947Z,194.18
2023-03-27T00:19:20.951Z,210.52
2023-03-27T00:21:49.696Z,203.63
2023-03-27T00:24:18.833Z,207.60
2023-03-27T00:26:47.563Z,201.52
2023-03-27T00:29:16.588Z,206.73
2023-03-27T00:31:45.419Z,198.85
2023-03-27T00:34:14.625Z,202.23
2023-03-27T00:36:44.631Z,194.07
2023-03-27T00:39:14.270Z,199.38
2023-03-27T00:41:43.569Z,195.55
2023-03-27T00:44:28.303Z,226.55
2023-03-27T00:46:58.116Z,262.90
2023-03-27T00:49:30.466Z,336.33
2023-03-27T00:52:00.837Z,284.80
2023-03-27T00:54:35.734Z,245.88
2023-03-27T00:57:10.197Z,208.75
2023-03-27T00:59:43.339Z,210.98
2023-03-27T01:02:16.741Z,228.65
2023-03-27T01:04:51.028Z,271.83
2023-03-27T01:07:23.304Z,237.55
2023-03-27T01:09:54.550Z,222.25
2023-03-27T01:12:48.139Z,209.98
2023-03-27T01:15:49.589Z,193.75
2023-03-27T01:18:46.994Z,232.80
2023-03-27T01:21:35.607Z,220.77
2023-03-27T01:24:20.533Z,192.15
2023-03-27T01:26:53.966Z,201.10
2023-03-27T01:29:33.039Z,210.82
2023-03-27T01:32:33.079Z,208.32
2023-03-27T01:35:26.168Z,210.82
2023-03-27T01:41:00.207Z,214.57
2023-03-27T01:43:54.313Z,219.90
2023-03-27T01:46:43.906Z,195.20
2023-03-27T01:49:31.106Z,181.25
2023-03-27T01:52:11.050Z,165.10
2023-03-27T01:54:52.035Z,159.23
2023-03-27T01:57:36.879Z,151.90
2023-03-27T02:00:25.355Z,131.80
2023-03-27T02:03:21.657Z,149.13
2023-03-27T02:06:16.794Z,145.93
2023-03-27T02:09:22.680Z,142.13
2023-03-27T02:12:09.716Z,200.25
2023-03-27T02:14:51.044Z,137.10
2023-03-27T02:17:27.105Z,138.25
2023-03-27T02:20:03.532Z,108.88
2023-03-27T02:22:37.661Z,116.43
2023-03-27T02:25:27.715Z,122.82
2023-03-27T02:28:38.204Z,131.60
2023-03-27T02:31:34.102Z,126.07
2023-03-27T02:34:58.014Z,133.75
2023-03-27T02:37:39.305Z,124.07
2023-03-27T02:40:45.988Z,142.63
2023-03-27T02:44:09.491Z,119.85
2023-03-27T02:47:14.014Z,135.38
2023-03-27T02:49:50.025Z,128.75
2023-03-27T02:52:32.258Z,106.97
2023-03-27T02:55:07.873Z,104.32
2023-03-27T02:57:40.220Z,114.82
2023-03-27T03:00:34.801Z,96.35
2023-03-27T03:03:28.726Z,109.53
2023-03-27T03:06:08.168Z,96.70
2023-03-27T03:08:39.409Z,93.40
2023-03-27T03:11:14.348Z,103.30
2023-03-27T03:13:43.518Z,109.07
2023-03-27T03:16:12.473Z,100.25
2023-03-27T03:18:41.800Z,103.20
2023-03-27T03:21:10.684Z,102.50
2023-03-27T03:23:40.200Z,98.88
2023-03-27T03:26:09.637Z,96.93
2023-03-27T03:29:00.852Z,99.05
2023-03-27T03:31:44.202Z,102.78
2023-03-27T03:34:23.438Z,90.10
2023-03-27T03:36:56.137Z,105.93
2023-03-27T03:39:31.039Z,103.13
2023-03-27T03:42:00.028Z,74.90
2023-03-27T03:44:28.879Z,92.90
2023-03-27T03:46:59.181Z,99.72
2023-03-27T03:49:28.171Z,110.80
2023-03-27T03:52:03.627Z,111.90
2023-03-27T03:54:34.677Z,147.70
2023-03-27T03:57:04.143Z,104.15
2023-03-27T03:59:35.183Z,121.40
2023-03-27T04:02:30.370Z,116.65
2023-03-27T04:05:09.528Z,137.63
2023-03-27T04:07:41.823Z,120.13
2023-03-27T04:10:30.639Z,109.63
2023-03-27T04:13:01.835Z,113.38
2023-03-27T04:15:38.657Z,111.60
2023-03-27T04:18:31.195Z,90.45
2023-03-27T04:21:03.443Z,85.15
2023-03-27T04:23:32.517Z,80.90
2023-03-27T04:26:04.838Z,75.90
2023-03-27T04:29:03.268Z,69.03
2023-03-27T04:32:07.388Z,68.15
2023-03-27T04:34:42.995Z,49.45
2023-03-27T04:37:32.245Z,120.55
2023-03-27T04:40:18.849Z,74.25
2023-03-27T04:42:48.028Z,67.25
2023-03-27T04:45:21.109Z,72.60
2023-03-27T04:47:52.498Z,70.18
2023-03-27T04:50:22.506Z,67.68
2023-03-27T04:52:52.841Z,72.03
2023-03-27T04:55:26.705Z,60.38
2023-03-27T04:57:58.393Z,57.78
2023-03-27T05:00:28.729Z,36.87
2023-03-27T05:03:30.057Z,40.08
2023-03-27T05:06:09.421Z,38.95
2023-03-27T05:08:39.247Z,47.88
2023-03-27T05:11:08.752Z,35.13
2023-03-27T05:13:42.701Z,29.60
2023-03-27T05:16:13.243Z,16.23
2023-03-27T05:18:46.971Z,20.20
2023-03-27T05:21:15.870Z,19.15
2023-03-27T05:23:44.944Z,18.92
2023-03-27T05:26:14.149Z,23.38
2023-03-27T05:28:52.225Z,18.35
2023-03-27T05:31:21.413Z,17.23
2023-03-27T05:33:56.579Z,22.00
2023-03-27T05:36:29.448Z,18.83
2023-03-27T05:38:59.524Z,16.83
2023-03-27T05:41:42.203Z,14.95
2023-03-27T05:44:11.396Z,25.40
2023-03-27T05:49:18.841Z,25.45
2023-03-27T05:51:53.642Z,21.67
2023-03-27T05:54:22.871Z,26.40
2023-03-27T05:56:57.482Z,24.60
2023-03-27T05:59:27.477Z,17.92
2023-03-27T06:02:02.864Z,24.83
2023-03-27T06:04:46.081Z,74.70
2023-03-27T06:07:27.693Z,27.13
2023-03-27T06:10:02.481Z,25.52
2023-03-27T06:12:31.436Z,30.40
2023-03-27T06:15:12.412Z,51.75
2023-03-27T06:17:49.266Z,25.98
2023-03-27T06:20:20.947Z,21.55
2023-03-27T06:23:04.572Z,29.08
2023-03-27T06:25:39.812Z,32.03
2023-03-27T06:28:12.460Z,37.70
2023-03-27T06:30:50.893Z,22.85
2023-03-27T06:33:33.943Z,42.17
2023-03-27T06:36:07.007Z,54.55
2023-03-27T06:38:38.490Z,23.83
2023-03-27T06:41:07.606Z,48.47
2023-03-27T06:44:09.089Z,40.92
2023-03-27T06:47:03.288Z,41.35
2023-03-27T06:49:48.790Z,39.90
2023-03-27T06:52:23.222Z,39.33
2023-03-27T06:54:53.942Z,40.13
2023-03-27T06:57:23.128Z,64.68
2023-03-27T06:59:58.112Z,54.47
2023-03-27T07:02:58.914Z,73.63
2023-03-27T07:05:49.868Z,47.53
2023-03-27T07:08:24.485Z,33.28
2023-03-27T07:11:10.678Z,39.65
2023-03-27T07:13:54.374Z,45.53
2023-03-27T07:16:28.051Z,31.40
2023-03-27T07:19:01.204Z,42.13
2023-03-27T07:21:33.189Z,40.55
2023-03-27T07:24:02.673Z,37.72
2023-03-27T07:26:37.851Z,31.95
2023-03-27T07:29:23.196Z,35.97
2023-03-27T07:31:58.911Z,56.60
2023-03-27T07:34:35.992Z,39.75
2023-03-27T07:37:07.844Z,69.93
2023-03-27T07:39:39.892Z,58.38
2023-03-27T07:42:11.992Z,62.88
2023-03-27T07:45:01.360Z,38.30
2023-03-27T07:47:33.514Z,34.55
2023-03-27T07:50:13.746Z,54.67
2023-03-27T07:52:48.414Z,49.28
2023-03-27T07:55:19.871Z,53.35
2023-03-27T07:58:03.216Z,40.78
2023-03-27T08:00:40.797Z,32.83
2023-03-27T08:03:16.167Z,47.03
2023-03-27T08:06:00.964Z,35.10
2023-03-27T08:08:34.052Z,39.67
2023-03-27T08:11:06.192Z,56.25
2023-03-27T08:13:41.116Z,33.25
2023-03-27T08:16:15.868Z,37.30
2023-03-27T08:18:48.001Z,36.03
2023-03-27T08:21:18.436Z,45.05
2023-03-27T08:23:51.723Z,29.27
2023-03-27T08:26:30.068Z,30.58
2023-03-27T08:29:03.014Z,34.22
2023-03-27T08:31:34.412Z,50.25
2023-03-27T08:37:00.752Z,33.40
2023-03-27T08:39:49.722Z,30.17
2023-03-27T08:42:30.921Z,33.60
2023-03-27T08:45:21.924Z,41.97
2023-03-27T08:48:03.779Z,45.13
2023-03-27T08:50:38.932Z,50.58
2023-03-27T08:56:06.150Z,23.75
2023-03-27T08:58:40.237Z,31.60
2023-03-27T09:01:41.988Z,44.05
2023-03-27T09:04:37.544Z,27.38
2023-03-27T09:10:16.250Z,18.80
2023-03-27T09:13:05.696Z,26.25
2023-03-27T09:15:42.986Z,27.13
2023-03-27T09:18:22.322Z,35.53
2023-03-27T09:21:04.518Z,23.90
2023-03-27T09:23:55.406Z,26.80
2023-03-27T09:27:06.707Z,49.25
2023-03-27T09:29:50.858Z,40.33
2023-03-27T09:32:45.925Z,34.60
2023-03-27T09:35:16.523Z,32.35
2023-03-27T09:37:47.548Z,25.48
2023-03-27T09:40:44.081Z,33.63
2023-03-27T09:43:24.590Z,36.70
2023-03-27T09:45:56.076Z,38.78
2023-03-27T09:48:58.372Z,28.92
2023-03-27T09:51:37.390Z,30.55
2023-03-27T09:54:08.959Z,57.15
2023-03-27T09:56:45.454Z,35.33
2023-03-27T09:59:59.595Z,34.97
2023-03-27T10:02:32.041Z,31.95
2023-03-27T10:05:23.009Z,32.83
2023-03-27T10:07:56.491Z,31.13
2023-03-27T10:10:46.669Z,33.05
2023-03-27T10:13:30.695Z,38.90
2023-03-27T10:16:07.942Z,33.00
2023-03-27T10:18:58.345Z,37.28
2023-03-27T10:21:40.460Z,29.77
2023-03-27T10:24:19.394Z,25.13
2023-03-27T10:27:24.321Z,27.58
2023-03-27T10:30:34.476Z,31.38
2023-03-27T10:33:43.312Z,45.95
2023-03-27T10:36:48.048Z,35.40
2023-03-27T10:39:21.749Z,28.63
2023-03-27T10:42:14.651Z,40.63
2023-03-27T10:44:50.151Z,47.58
2023-03-27T10:47:33.886Z,34.78
2023-03-27T10:50:34.565Z,35.70
2023-03-27T10:53:21.831Z,53.25
2023-03-27T10:56:06.994Z,31.98
2023-03-27T10:58:48.652Z,28.75
2023-03-27T11:01:45.757Z,29.02
2023-03-27T11:04:39.441Z,27.40
2023-03-27T11:07:18.828Z,25.63
2023-03-27T11:10:03.971Z,33.47
2023-03-27T11:12:38.936Z,28.88
2023-03-27T11:15:27.299Z,21.90
2023-03-27T11:18:04.071Z,36.53
2023-03-27T11:20:53.465Z,28.65
2023-03-27T11:23:39.458Z,38.13
2023-03-27T11:26:37.758Z,37.55
2023-03-27T11:29:36.702Z,36.13
2023-03-27T11:32:20.902Z,19.75
2023-03-27T11:35:03.940Z,20.55
2023-03-27T11:37:57.296Z,31.95
2023-03-27T11:40:50.368Z,31.17
2023-03-27T11:43:21.309Z,20.38
2023-03-27T11:46:29.807Z,35.05
2023-03-27T11:49:27.197Z,40.90
2023-03-27T11:52:27.947Z,34.40
2023-03-27T11:55:18.325Z,39.67
2023-03-27T11:58:01.121Z,44.35
2023-03-27T12:01:09.022Z,39.58
2023-03-27T12:04:15.039Z,28.13
2023-03-27T12:07:04.918Z,20.17
2023-03-27T12:10:07.171Z,39.40
2023-03-27T12:13:42.222Z,29.27
2023-03-27T12:16:23.233Z,24.45
2023-03-27T12:19:38.486Z,33.80
2023-03-27T12:22:43.216Z,29.45
2023-03-27T12:25:29.335Z,37.20
2023-03-27T12:28:25.095Z,47.65
2023-03-27T12:31:42.946Z,30.92
2023-03-27T12:34:33.162Z,44.60
2023-03-27T12:37:04.639Z,73.50
2023-03-27T12:39:44.949Z,73.95
2023-03-27T12:42:16.391Z,44.95
2023-03-27T12:45:15.360Z,66.85
2023-03-27T12:48:08.944Z,72.78
2023-03-27T12:50:56.602Z,87.53
2023-03-27T12:53:27.728Z,77.75
2023-03-27T12:56:20.398Z,67.60
2023-03-27T12:58:54.001Z,39.30
2023-03-27T13:01:51.616Z,45.20
2023-03-27T13:04:47.704Z,34.22
2023-03-27T13:07:37.698Z,47.28
2023-03-27T13:10:28.307Z,34.10
2023-03-27T13:13:10.136Z,25.40
2023-03-27T13:15:44.875Z,68.70
2023-03-27T13:19:00.482Z,75.43
2023-03-27T13:21:46.825Z,67.28
2023-03-27T13:24:38.893Z,104.05
2023-03-27T13:27:34.027Z,43.67
2023-03-27T13:30:04.847Z,37.75
2023-03-27T13:33:25.084Z,63.90
2023-03-27T13:36:01.129Z,53.00
2023-03-27T13:39:16.132Z,43.83
2023-03-27T13:42:23.878Z,27.40
2023-03-27T13:45:07.049Z,25.65
2023-03-27T13:48:05.399Z,30.67
2023-03-27T13:50:55.837Z,14.05
2023-03-27T13:53:52.818Z,31.77
2023-03-27T13:56:53.189Z,41.72
2023-03-27T14:00:11.192Z,23.55
2023-03-27T14:02:54.695Z,23.50
2023-03-27T14:06:04.120Z,22.88
2023-03-27T14:09:01.189Z,17.13
2023-03-27T14:12:03.497Z,12.48
2023-03-27T14:15:16.989Z,18.58
2023-03-27T14:18:27.895Z,30.00
2023-03-27T14:21:04.977Z,28.52
2023-03-27T14:26:36.410Z,34.55
2023-03-27T14:29:06.028Z,39.38
2023-03-27T14:31:45.078Z,42.58
2023-03-27T14:34:25.759Z,45.78
2023-03-27T14:37:31.468Z,60.75
2023-03-27T14:40:21.899Z,62.60
2023-03-27T14:42:53.533Z,89.18
2023-03-27T14:45:28.236Z,71.05
2023-03-27T14:48:03.827Z,126.07
2023-03-27T14:50:43.562Z,108.13
2023-03-27T14:53:18.201Z,78.90
2023-03-27T14:56:17.068Z,61.55
2023-03-27T14:59:18.915Z,118.03
2023-03-27T15:01:55.816Z,123.07
2023-03-27T15:04:28.092Z,114.78
2023-03-27T15:07:16.373Z,77.53
2023-03-27T15:10:07.306Z,60.13
2023-03-27T15:12:55.353Z,60.17
2023-03-27T15:15:41.022Z,46.15
2023-03-27T15:18:26.777Z,123.82
2023-03-27T15:20:57.900Z,208.02
2023-03-27T15:26:10.644Z,79.87
2023-03-27T15:28:59.512Z,54.20
2023-03-27T15:31:31.032Z,54.15
2023-03-27T15:34:11.561Z,61.53
2023-03-27T15:36:44.036Z,67.47
2023-03-27T15:39:22.651Z,53.08
2023-03-27T15:41:54.066Z,53.50
2023-03-27T15:44:26.803Z,81.38
2023-03-27T15:49:38.851Z,46.13
2023-03-27T15:52:33.264Z,62.92
2023-03-27T15:55:04.038Z,76.22
2023-03-27T15:57:33.190Z,103.55
2023-03-27T16:00:09.696Z,85.68
2023-03-27T16:02:42.037Z,136.77
2023-03-27T16:05:19.262Z,101.45
2023-03-27T16:07:49.973Z,100.05
2023-03-27T16:10:34.885Z,145.35
2023-03-27T16:13:07.338Z,113.32
2023-03-27T16:15:43.435Z,117.65
2023-03-27T16:18:25.438Z,114.40
2023-03-27T16:20:54.707Z,117.90
2023-03-27T16:23:23.715Z,118.75
2023-03-27T16:25:52.565Z,105.00
2023-03-27T16:28:21.364Z,118.00
2023-03-27T16:30:50.787Z,99.45
2023-03-27T16:33:23.398Z,97.32
2023-03-27T16:35:53.129Z,108.93
2023-03-27T16:38:22.556Z,121.78
2023-03-27T16:40:51.830Z,108.68
2023-03-27T16:43:20.519Z,111.53
2023-03-27T16:45:49.882Z,108.53
2023-03-27T16:48:18.616Z,128.32
2023-03-27T16:50:47.635Z,131.13
2023-03-27T16:53:16.404Z,140.45
2023-03-27T16:55:45.712Z,140.85
2023-03-27T16:58:15.057Z,156.70
2023-03-27T17:00:44.064Z,204.93
2023-03-27T17:03:13.147Z,158.40
2023-03-27T17:05:44.948Z,169.70
2023-03-27T17:08:17.286Z,160.27
2023-03-27T17:13:15.104Z,120.53
2023-03-27T17:15:44.304Z,118.45
2023-03-27T17:18:13.298Z,124.80
2023-03-27T17:20:42.766Z,148.20
2023-03-27T17:23:12.840Z,127.50
2023-03-27T17:25:43.225Z,113.55
2023-03-27T17:28:12.934Z,139.38
2023-03-27T17:30:56.603Z,143.40
2023-03-27T17:33:30.748Z,164.38
2023-03-27T17:35:59.753Z,156.45
2023-03-27T17:38:29.166Z,132.35
2023-03-27T17:40:58.859Z,106.82
2023-03-27T17:43:28.666Z,128.82
2023-03-27T17:45:57.694Z,124.32
2023-03-27T17:48:27.108Z,137.13
2023-03-27T17:51:08.054Z,162.85
2023-03-27T17:53:39.612Z,143.13
2023-03-27T17:56:09.268Z,114.95
2023-03-27T17:58:38.423Z,98.13
2023-03-27T18:01:20.644Z,100.65
2023-03-27T18:03:50.261Z,98.78
2023-03-27T18:06:19.788Z,96.13
2023-03-27T18:08:48.788Z,95.55
2023-03-27T18:11:17.897Z,102.20
2023-03-27T18:13:52.246Z,98.88
2023-03-27T18:16:22.591Z,96.85
2023-03-27T18:18:53.584Z,94.85
2023-03-27T18:21:23.019Z,110.25
2023-03-27T18:23:53.857Z,99.55
2023-03-27T18:26:23.074Z,100.50
2023-03-27T18:28:53.231Z,116.28
2023-03-27T18:31:22.243Z,94.88
2023-03-27T18:33:51.148Z,111.32
2023-03-27T18:36:20.181Z,75.80
2023-03-27T18:38:49.785Z,77.93
2023-03-27T18:41:18.905Z,79.05
2023-03-27T18:43:47.799Z,67.50
2023-03-27T18:46:19.694Z,76.25
2023-03-27T18:48:51.752Z,81.72
2023-03-27T18:51:20.773Z,87.25
2023-03-27T18:53:51.710Z,83.05
2023-03-27T18:56:20.619Z,117.95
2023-03-27T18:58:49.367Z,117.75
2023-03-27T19:01:18.587Z,96.57
2023-03-27T19:03:47.984Z,118.15
2023-03-27T19:06:20.533Z,102.65
2023-03-27T19:08:49.780Z,111.88
2023-03-27T19:11:19.739Z,87.28
2023-03-27T19:14:07.793Z,72.22
2023-03-27T19:17:06.700Z,82.65
2023-03-27T19:19:55.960Z,58.17
2023-03-27T19:22:47.829Z,74.65
2023-03-27T19:25:28.597Z,85.05
2023-03-27T19:27:57.582Z,74.07
2023-03-27T19:30:26.529Z,66.88
2023-03-27T19:32:56.736Z,63.22
2023-03-27T19:35:26.698Z,57.17
2023-03-27T19:37:55.410Z,70.65
2023-03-27T19:40:24.957Z,48.78
2023-03-27T19:42:53.964Z,67.18
2023-03-27T19:45:22.847Z,65.13
2023-03-27T19:47:51.902Z,64.93
2023-03-27T19:50:20.851Z,68.57
2023-03-27T19:53:08.469Z,67.75
2023-03-27T19:55:38.615Z,73.07
2023-03-27T19:58:07.576Z,65.82
2023-03-27T20:00:40.810Z,72.97
2023-03-27T20:03:11.477Z,85.75
2023-03-27T20:05:49.368Z,72.95
2023-03-27T20:08:20.465Z,68.28
2023-03-27T20:10:51.236Z,63.03
2023-03-27T20:15:54.223Z,70.47
2023-03-27T20:18:24.601Z,68.97
2023-03-27T20:23:34.334Z,72.68
2023-03-27T20:26:04.500Z,84.28
2023-03-27T20:28:37.926Z,84.25
2023-03-27T20:31:08.807Z,120.68
2023-03-27T20:33:38.984Z,90.32
2023-03-27T20:36:09.146Z,97.35
2023-03-27T20:38:38.944Z,101.97
2023-03-27T20:41:09.486Z,110.53
2023-03-27T20:43:40.356Z,148.57
2023-03-27T20:46:12.219Z,156.90
2023-03-27T20:48:54.132Z,186.38
2023-03-27T20:51:25.510Z,193.27
2023-03-27T20:53:58.941Z,210.80
2023-03-27T20:56:29.012Z,184.02
2023-03-27T20:58:58.759Z,222.25
2023-03-27T21:01:29.816Z,225.05
2023-03-27T21:04:03.362Z,218.40
2023-03-27T21:06:35.957Z,228.90
2023-03-27T21:09:07.095Z,238.65
2023-03-27T21:11:38.206Z,239.90
2023-03-27T21:14:08.363Z,217.20
2023-03-27T21:16:38.917Z,203.57
2023-03-27T21:19:08.950Z,203.82
2023-03-27T21:21:39.326Z,212.65
2023-03-27T21:24:09.283Z,182.30
2023-03-27T21:26:38.996Z,178.65
2023-03-27T21:29:11.934Z,178.32
2023-03-27T21:31:42.959Z,185.88
2023-03-27T21:34:12.636Z,194.63
2023-03-27T21:36:41.492Z,184.57
2023-03-27T21:39:11.781Z,206.05
2023-03-27T21:41:40.842Z,200.35
2023-03-27T21:44:09.630Z,201.85
2023-03-27T21:46:38.977Z,252.80
2023-03-27T21:49:07.900Z,230.75
2023-03-27T21:51:37.056Z,224.63
2023-03-27T21:54:06.091Z,196.68
2023-03-27T21:56:35.219Z,217.40
2023-03-27T21:59:03.969Z,202.77
2023-03-27T22:01:33.046Z,211.40
2023-03-27T22:04:03.132Z,207.52
2023-03-27T22:06:32.496Z,202.27
2023-03-27T22:09:01.562Z,204.45
2023-03-27T22:11:30.712Z,209.55
2023-03-27T22:14:00.160Z,209.20
2023-03-27T22:16:29.829Z,217.63
2023-03-27T22:18:58.791Z,226.68
2023-03-27T22:21:30.232Z,224.90
2023-03-27T22:24:00.548Z,206.75
2023-03-27T22:26:35.163Z,207.85
2023-03-27T22:29:05.080Z,193.40
2023-03-27T22:31:33.855Z,199.20
2023-03-27T22:34:05.240Z,209.93
2023-03-27T22:36:35.169Z,186.23
2023-03-27T22:39:04.092Z,210.07
2023-03-27T22:41:33.043Z,229.93
2023-03-27T22:44:02.679Z,228.63
2023-03-27T22:46:31.709Z,198.60
2023-03-27T22:49:00.679Z,207.68
2023-03-27T22:51:31.843Z,189.65
2023-03-27T22:54:01.168Z,220.60
2023-03-27T22:56:30.023Z,171.63
2023-03-27T22:58:59.217Z,197.48
2023-03-27T23:01:28.088Z,224.82
2023-03-27T23:03:57.345Z,282.30
2023-03-27T23:06:26.462Z,207.63
2023-03-27T23:08:55.588Z,169.18
2023-03-27T23:11:24.636Z,163.07
2023-03-27T23:13:53.611Z,165.02
2023-03-27T23:16:22.509Z,158.98
2023-03-27T23:18:51.598Z,161.93
2023-03-27T23:21:20.473Z,178.50
2023-03-27T23:23:49.641Z,147.23
2023-03-27T23:26:19.098Z,154.70
2023-03-27T23:28:48.329Z,196.68
2023-03-27T23:31:19.623Z,196.20
2023-03-27T23:33:51.643Z,151.85
2023-03-27T23:36:23.500Z,152.70
2023-03-27T23:38:53.811Z,170.77
2023-03-27T23:41:23.406Z,163.15
2023-03-27T23:43:52.437Z,163.30
2023-03-27T23:46:21.430Z,178.30
2023-03-27T23:48:50.374Z,167.32
2023-03-27T23:51:19.423Z,208.57
2023-03-27T23:53:48.111Z,200.05
2023-03-27T23:56:17.098Z,212.35
2023-03-27T23:58:45.965Z,190.45
